| time (UTC) | temp F | wind direction | speed knots | gust knots | rain 1hr in | rain 24hr in | rain mn in | humidity % | barometer mb |
| 20260510213645 | 54 | 331 | 4.3 | 6.1 | 0.00 | 0.00 | 0.00 | 41 | 1020.4 |
| 20260510213142 | 55 | 326 | 3.5 | 7.0 | 0.00 | 0.00 | 0.00 | 35 | 1020.2 |
| 20260510212638 | 55 | 19 | 1.7 | 5.2 | 0.00 | 0.00 | 0.00 | 37 | 1020.0 |
| 20260510212136 | 55 | 261 | 3.5 | 5.2 | 0.00 | 0.00 | 0.00 | 38 | 1020.2 |
| 20260510211633 | 53 | 333 | 1.7 | 2.6 | 0.00 | 0.00 | 0.00 | 38 | 1020.1 |
| 20260510211133 | 54 | 268 | 1.7 | 3.5 | 0.00 | 0.00 | 0.00 | 39 | 1020.1 |
| 20260510210629 | 54 | 310 | 3.5 | 5.2 | 0.00 | 0.00 | 0.00 | 39 | 1020.3 |
| 20260510210125 | 54 | 345 | 2.6 | 3.5 | 0.00 | 0.00 | 0.00 | 35 | 1020.2 |
| 20260510205624 | 55 | 338 | 2.6 | 5.2 | 0.00 | 0.00 | 0.00 | 35 | 1020.1 |
| 20260510205120 | 54 | 292 | 3.5 | 7.0 | 0.00 | 0.00 | 0.00 | 37 | 1020.1 |
| 20260510204616 | 56 | 332 | 5.2 | 7.0 | 0.00 | 0.00 | 0.00 | 36 | 1020.0 |
| 20260510204113 | 54 | 291 | 2.6 | 2.6 | 0.00 | 0.00 | 0.00 | 36 | 1020.0 |
| 20260510203610 | 55 | 331 | 3.5 | 5.2 | 0.00 | 0.00 | 0.00 | 39 | 1020.3 |
| 20260510203107 | 54 | 313 | 4.3 | 7.8 | 0.00 | 0.00 | 0.00 | 41 | 1020.1 |
| 20260510202606 | 54 | 327 | 3.5 | 7.8 | 0.00 | 0.00 | 0.00 | 35 | 1020.3 |
| 20260510202102 | 54 | 278 | 3.5 | 6.1 | 0.00 | 0.00 | 0.00 | 43 | 1020.3 |
| 20260510201600 | 54 | 270 | 3.5 | 5.2 | 0.00 | 0.00 | 0.00 | 35 | 1020.0 |
| 20260510201056 | 55 | 322 | 4.3 | 11.3 | 0.00 | 0.00 | 0.00 | 34 | 1020.1 |
| 20260510200552 | 54 | 353 | 0.0 | 3.5 | 0.00 | 0.00 | 0.00 | 35 | 1019.9 |
| 20260510200050 | 53 | 217 | 2.6 | 5.2 | 0.00 | 0.00 | 0.00 | 37 | 1020.2 |
| 20260510195548 | 52 | 345 | 3.5 | 5.2 | 0.00 | 0.00 | 0.00 | 37 | 1020.1 |
| 20260510195044 | 51 | 326 | 3.5 | 8.7 | 0.00 | 0.00 | 0.00 | 37 | 1020.3 |
| 20260510194539 | 52 | 315 | 4.3 | 5.2 | 0.00 | 0.00 | 0.00 | 42 | 1020.2 |
| 20260510194035 | 54 | 45 | 0.9 | 3.5 | 0.00 | 0.00 | 0.00 | 40 | 1020.1 |
| 20260510193530 | 53 | 243 | 5.2 | 6.1 | 0.00 | 0.00 | 0.00 | 39 | 1020.1 |
| 20260510193027 | 53 | 317 | 0.9 | 7.8 | 0.00 | 0.00 | 0.00 | 36 | 1020.2 |
| 20260510192526 | 53 | 1 | 4.3 | 7.0 | 0.00 | 0.00 | 0.00 | 41 | 1020.3 |
| 20260510192023 | 52 | 134 | 3.5 | 7.0 | 0.00 | 0.00 | 0.00 | 42 | 1020.1 |
| 20260510191519 | 52 | 344 | 1.7 | 3.5 | 0.00 | 0.00 | 0.00 | 38 | 1020.0 |
| 20260510191016 | 52 | 293 | 3.5 | 7.8 | 0.00 | 0.00 | 0.00 | 39 | 1020.2 |
| 20260510190513 | 54 | 295 | 3.5 | 7.8 | 0.00 | 0.00 | 0.00 | 36 | 1020.0 |
| 20260510190011 | 52 | 310 | 4.3 | 7.0 | 0.00 | 0.00 | 0.00 | 38 | 1020.0 |
| 20260510185507 | 52 | 40 | 2.6 | 5.2 | 0.00 | 0.00 | 0.00 | 38 | 1020.0 |
| 20260510185004 | 52 | 316 | 4.3 | 7.0 | 0.00 | 0.00 | 0.00 | 39 | 1020.2 |
| 20260510184502 | 52 | 293 | 6.1 | 7.8 | 0.00 | 0.00 | 0.00 | 39 | 1020.2 |
| 20260510184001 | 51 | 289 | 2.6 | 7.8 | 0.00 | 0.00 | 0.00 | 42 | 1020.3 |
| 20260510183458 | 50 | 319 | 4.3 | 5.2 | 0.00 | 0.00 | 0.00 | 41 | 1020.0 |
| 20260510182953 | 51 | 324 | 4.3 | 5.2 | 0.00 | 0.00 | 0.00 | 42 | 1020.0 |
| 20260510182449 | 51 | 289 | 5.2 | 7.8 | 0.00 | 0.00 | 0.00 | 40 | 1019.9 |
| 20260510181945 | 51 | 37 | 2.6 | 5.2 | 0.00 | 0.00 | 0.00 | 40 | 1020.0 |
| 20260510181443 | 51 | 312 | 1.7 | 6.1 | 0.00 | 0.00 | 0.00 | 40 | 1020.0 |
| 20260510180939 | 51 | 18 | 2.6 | 8.7 | 0.00 | 0.00 | 0.00 | 41 | 1020.0 |
| 20260510180436 | 51 | 269 | 3.5 | 6.1 | 0.00 | 0.00 | 0.00 | 43 | 1020.0 |
| 20260510175933 | 50 | 314 | 3.5 | 7.8 | 0.00 | 0.00 | 0.00 | 43 | 1020.1 |
| 20260510175429 | 51 | 307 | 6.1 | 7.8 | 0.00 | 0.00 | 0.00 | 42 | 1020.0 |
| 20260510174925 | 51 | 309 | 1.7 | 5.2 | 0.00 | 0.00 | 0.00 | 40 | 1019.9 |
| 20260510174423 | 50 | 311 | 5.2 | 7.0 | 0.00 | 0.00 | 0.00 | 44 | 1019.8 |
| 20260510173919 | 51 | 325 | 4.3 | 8.7 | 0.00 | 0.00 | 0.00 | 42 | 1019.8 |
| 20260510173415 | 51 | 326 | 5.2 | 7.0 | 0.00 | 0.00 | 0.00 | 44 | 1019.8 |
| 20260510172912 | 50 | 353 | 3.5 | 7.8 | 0.00 | 0.00 | 0.00 | 41 | 1019.6 |
| 20260510172408 | 50 | 14 | 6.1 | 7.8 | 0.00 | 0.00 | 0.00 | 44 | 1019.8 |
| 20260510171903 | 50 | 335 | 7.0 | 11.3 | 0.00 | 0.00 | 0.00 | 43 | 1019.8 |
| 20260510171401 | 50 | 6 | 7.0 | 8.7 | 0.00 | 0.00 | 0.00 | 42 | 1019.6 |
| 20260510170858 | 50 | 291 | 5.2 | 7.0 | 0.00 | 0.00 | 0.00 | 40 | 1019.7 |
| 20260510170355 | 51 | 328 | 5.2 | 14.8 | 0.00 | 0.00 | 0.00 | 44 | 1019.7 |
| 20260510165849 | 50 | 357 | 2.6 | 3.5 | 0.00 | 0.00 | 0.00 | 42 | 1019.7 |
| 20260510165346 | 50 | 257 | 5.2 | 8.7 | 0.00 | 0.00 | 0.00 | 47 | 1019.7 |
| 20260510164844 | 50 | 329 | 6.1 | 7.0 | 0.00 | 0.00 | 0.00 | 43 | 1019.7 |
| 20260510164341 | 49 | 318 | 5.2 | 7.8 | 0.00 | 0.00 | 0.00 | 42 | 1019.7 |
| 20260510163840 | 50 | 325 | 2.6 | 6.1 | 0.00 | 0.00 | 0.00 | 42 | 1019.7 |
| 20260510163338 | 50 | 307 | 3.5 | 3.5 | 0.00 | 0.00 | 0.00 | 42 | 1019.5 |
| 20260510162837 | 50 | 340 | 4.3 | 6.1 | 0.00 | 0.00 | 0.00 | 41 | 1019.5 |
| 20260510162335 | 49 | 346 | 8.7 | 12.2 | 0.00 | 0.00 | 0.00 | 41 | 1019.5 |
| 20260510161830 | 49 | 324 | 4.3 | 7.8 | 0.00 | 0.00 | 0.00 | 42 | 1019.7 |
| 20260510161326 | 48 | 325 | 4.3 | 7.8 | 0.00 | 0.00 | 0.00 | 42 | 1019.4 |
| 20260510160825 | 49 | 317 | 7.0 | 9.6 | 0.00 | 0.00 | 0.00 | 42 | 1019.4 |
| 20260510160321 | 49 | 320 | 6.1 | 7.8 | 0.00 | 0.00 | 0.00 | 45 | 1019.5 |
| 20260510155820 | 49 | 323 | 7.8 | 11.3 | 0.00 | 0.00 | 0.00 | 44 | 1019.3 |
| 20260510155318 | 48 | 339 | 4.3 | 6.1 | 0.00 | 0.00 | 0.00 | 46 | 1019.3 |
| 20260510154813 | 49 | 330 | 6.1 | 8.7 | 0.00 | 0.00 | 0.00 | 45 | 1019.2 |
| 20260510154309 | 49 | 322 | 6.1 | 7.0 | 0.00 | 0.00 | 0.00 | 47 | 1019.0 |
| 20260510153804 | 49 | 277 | 3.5 | 7.0 | 0.00 | 0.00 | 0.00 | 49 | 1019.1 |
| 20260510153300 | 49 | 297 | 4.3 | 11.3 | 0.00 | 0.00 | 0.00 | 47 | 1019.1 |
| 20260510152757 | 48 | 287 | 6.1 | 8.7 | 0.00 | 0.00 | 0.00 | 45 | 1019.0 |
| 20260510152254 | 48 | 340 | 7.0 | 8.7 | 0.00 | 0.00 | 0.00 | 50 | 1019.3 |
| 20260510151750 | 48 | 302 | 5.2 | 9.6 | 0.00 | 0.00 | 0.00 | 48 | 1019.1 |
| 20260510151248 | 48 | 293 | 3.5 | 7.0 | 0.00 | 0.00 | 0.00 | 50 | 1019.0 |
| 20260510150743 | 47 | 308 | 5.2 | 7.8 | 0.00 | 0.00 | 0.00 | 49 | 1019.0 |
| 20260510150239 | 47 | 340 | 5.2 | 7.0 | 0.00 | 0.00 | 0.00 | 49 | 1019.0 |
| 20260510145730 | 47 | 332 | 5.2 | 7.0 | 0.00 | 0.00 | 0.00 | 50 | 1019.1 |
| 20260510145226 | 47 | 300 | 4.3 | 7.8 | 0.00 | 0.00 | 0.00 | 50 | 1019.1 |
| 20260510144722 | 47 | 321 | 4.3 | 6.1 | 0.00 | 0.00 | 0.00 | 55 | 1019.1 |
| 20260510144220 | 47 | 338 | 7.8 | 8.7 | 0.00 | 0.00 | 0.00 | 50 | 1018.7 |
| 20260510143714 | 46 | 322 | 3.5 | 6.1 | 0.00 | 0.00 | 0.00 | 53 | 1018.8 |
| 20260510143211 | 46 | 317 | 5.2 | 8.7 | 0.00 | 0.00 | 0.00 | 51 | 1018.7 |
| 20260510142707 | 47 | 331 | 5.2 | 7.0 | 0.00 | 0.00 | 0.00 | 52 | 1019.0 |
| 20260510142204 | 47 | 282 | 3.5 | 7.0 | 0.00 | 0.00 | 0.00 | 52 | 1018.8 |
| 20260510141701 | 46 | 323 | 4.3 | 8.7 | 0.00 | 0.00 | 0.00 | 51 | 1018.8 |
| 20260510141200 | 46 | 347 | 4.3 | 7.0 | 0.00 | 0.00 | 0.00 | 54 | 1018.6 |
| 20260510140655 | 46 | 323 | 6.1 | 9.6 | 0.00 | 0.00 | 0.00 | 52 | 1018.8 |
| 20260510140155 | 46 | 307 | 6.1 | 8.7 | 0.00 | 0.00 | 0.00 | 53 | 1018.7 |
| 20260510135650 | 46 | 302 | 3.5 | 7.0 | 0.00 | 0.00 | 0.00 | 58 | 1018.7 |
| 20260510135146 | 45 | 312 | 5.2 | 6.1 | 0.00 | 0.00 | 0.00 | 60 | 1018.8 |
| 20260510134643 | 45 | 302 | 3.5 | 7.8 | 0.00 | 0.00 | 0.00 | 60 | 1019.0 |
| 20260510134141 | 45 | 326 | 2.6 | 6.1 | 0.00 | 0.00 | 0.00 | 66 | 1018.7 |
| 20260510133637 | 45 | 324 | 4.3 | 7.0 | 0.00 | 0.00 | 0.00 | 63 | 1019.0 |
| 20260510133132 | 44 | 326 | 3.5 | 6.1 | 0.00 | 0.00 | 0.00 | 66 | 1018.8 |
| 20260510132629 | 44 | 329 | 4.3 | 8.7 | 0.00 | 0.00 | 0.00 | 64 | 1018.8 |
| 20260510132126 | 44 | 328 | 3.5 | 5.2 | 0.00 | 0.00 | 0.00 | 68 | 1019.0 |
| 20260510131624 | 44 | 317 | 1.7 | 3.5 | 0.00 | 0.00 | 0.00 | 70 | 1019.0 |
| 20260510131121 | 44 | 308 | 3.5 | 5.2 | 0.00 | 0.00 | 0.00 | 70 | 1018.8 |
| 20260510130618 | 43 | 314 | 2.6 | 5.2 | 0.00 | 0.00 | 0.00 | 69 | 1019.0 |
| 20260510130115 | 43 | 325 | 2.6 | 2.6 | 0.00 | 0.00 | 0.00 | 70 | 1018.8 |
| 20260510125611 | 43 | 322 | 3.5 | 5.2 | 0.00 | 0.00 | 0.00 | 70 | 1018.6 |
| 20260510125108 | 43 | 300 | 3.5 | 5.2 | 0.00 | 0.00 | 0.00 | 71 | 1018.7 |
| 20260510124604 | 43 | 314 | 3.5 | 3.5 | 0.00 | 0.00 | 0.00 | 70 | 1018.5 |
| 20260510124101 | 43 | 320 | 0.9 | 3.5 | 0.00 | 0.00 | 0.00 | 70 | 1018.4 |
| 20260510123556 | 43 | 303 | 2.6 | 3.5 | 0.00 | 0.00 | 0.00 | 71 | 1018.6 |
| 20260510123053 | 43 | 317 | 1.7 | 3.5 | 0.00 | 0.00 | 0.00 | 70 | 1018.4 |
| 20260510122549 | 42 | 306 | 2.6 | 2.6 | 0.00 | 0.00 | 0.00 | 70 | 1018.2 |
| 20260510122045 | 42 | 237 | 0.9 | 2.6 | 0.00 | 0.00 | 0.00 | 72 | 1018.4 |
| 20260510121542 | 42 | 299 | 1.7 | 3.5 | 0.00 | 0.00 | 0.00 | 69 | 1018.3 |
| 20260510121039 | 42 | 310 | 1.7 | 2.6 | 0.00 | 0.00 | 0.00 | 69 | 1018.2 |
| 20260510120537 | 42 | 343 | 1.7 | 1.7 | 0.00 | 0.00 | 0.00 | 69 | 1018.1 |
| 20260510120032 | 42 | 302 | 1.7 | 1.7 | 0.00 | 0.00 | 0.00 | 71 | 1018.1 |
| 20260510115529 | 42 | 311 | 1.7 | 2.6 | 0.00 | 0.00 | 0.00 | 70 | 1017.9 |
| 20260510115026 | 41 | 316 | 0.9 | 2.6 | 0.00 | 0.00 | 0.00 | 69 | 1017.9 |
| 20260510114522 | 41 | 283 | 1.7 | 1.7 | 0.00 | 0.00 | 0.00 | 69 | 1017.8 |
| 20260510114018 | 41 | 309 | 0.9 | 1.7 | 0.00 | 0.00 | 0.00 | 69 | 1017.8 |
| 20260510113514 | 41 | 290 | 1.7 | 1.7 | 0.00 | 0.00 | 0.00 | 70 | 1017.7 |
| 20260510113012 | 40 | 277 | 1.7 | 1.7 | 0.00 | 0.00 | 0.00 | 72 | 1017.7 |
| 20260510112508 | 39 | 303 | 0.9 | 0.9 | 0.00 | 0.00 | 0.00 | 75 | 1017.5 |
| 20260510112004 | 39 | 273 | 0.9 | 1.7 | 0.00 | 0.00 | 0.00 | 75 | 1017.3 |
| 20260510111500 | 38 | 273 | 1.7 | 1.7 | 0.00 | 0.00 | 0.00 | 76 | 1017.6 |
| 20260510110957 | 37 | 273 | 0.0 | 0.0 | 0.00 | 0.00 | 0.00 | 75 | 1017.5 |
| 20260510110453 | 37 | 273 | 0.0 | 0.0 | 0.00 | 0.00 | 0.00 | 74 | 1017.4 |
| 20260510105949 | 37 | 273 | 0.0 | 0.0 | 0.00 | 0.00 | 0.00 | 74 | 1017.2 |
| 20260510105445 | 38 | 274 | 0.0 | 0.0 | 0.00 | 0.00 | 0.00 | 74 | 1017.3 |
| 20260510104940 | 38 | 273 | 0.0 | 0.0 | 0.00 | 0.00 | 0.00 | 75 | 1017.1 |
| 20260510104437 | 38 | 273 | 0.0 | 0.0 | 0.00 | 0.00 | 0.00 | 73 | 1017.2 |
| 20260510103933 | 38 | 273 | 0.0 | 0.0 | 0.00 | 0.00 | 0.00 | 73 | 1016.9 |
| 20260510103426 | 38 | 273 | 0.0 | 0.0 | 0.00 | 0.00 | 0.00 | 72 | 1016.9 |
| 20260510102925 | 39 | 273 | 0.0 | 0.0 | 0.00 | 0.00 | 0.00 | 72 | 1016.9 |
| 20260510102422 | 39 | 273 | 0.0 | 0.0 | 0.00 | 0.00 | 0.00 | 70 | 1016.8 |
| 20260510101919 | 39 | 273 | 0.0 | 0.0 | 0.00 | 0.00 | 0.00 | 70 | 1016.8 |
| 20260510101417 | 40 | 286 | 0.0 | 0.9 | 0.00 | 0.00 | 0.00 | 70 | 1016.8 |
| 20260510100914 | 40 | 286 | 0.0 | 0.9 | 0.00 | 0.00 | 0.00 | 66 | 1016.6 |
| 20260510100411 | 40 | 286 | 0.0 | 0.9 | 0.00 | 0.00 | 0.00 | 66 | 1016.5 |
| 20260510095907 | 41 | 286 | 0.0 | 0.9 | 0.00 | 0.00 | 0.00 | 66 | 1016.5 |
| 20260510095402 | 41 | 286 | 0.0 | 2.6 | 0.00 | 0.00 | 0.00 | 67 | 1016.4 |
| 20260510094902 | 41 | 359 | 0.0 | 0.9 | 0.00 | 0.00 | 0.00 | 65 | 1016.6 |
| 20260510094357 | 42 | 359 | 0.0 | 0.9 | 0.00 | 0.00 | 0.00 | 64 | 1016.4 |
| 20260510093854 | 42 | 359 | 0.9 | 1.7 | 0.00 | 0.00 | 0.00 | 63 | 1016.4 |
| 20260510093349 | 42 | 348 | 0.0 | 0.9 | 0.00 | 0.00 | 0.00 | 64 | 1016.3 |
| 20260510092846 | 42 | 336 | 1.7 | 2.6 | 0.00 | 0.00 | 0.00 | 62 | 1016.3 |
| 20260510092342 | 42 | 329 | 0.9 | 1.7 | 0.00 | 0.00 | 0.00 | 63 | 1016.4 |
| 20260510091838 | 42 | 328 | 1.7 | 1.7 | 0.00 | 0.00 | 0.00 | 63 | 1016.4 |
| 20260510091335 | 42 | 338 | 1.7 | 2.6 | 0.00 | 0.00 | 0.00 | 61 | 1016.2 |
| 20260510090832 | 42 | 339 | 0.9 | 1.7 | 0.00 | 0.00 | 0.00 | 62 | 1016.4 |
| 20260510090328 | 42 | 346 | 1.7 | 2.6 | 0.00 | 0.00 | 0.00 | 61 | 1016.4 |
| 20260510085824 | 42 | 331 | 1.7 | 1.7 | 0.00 | 0.00 | 0.00 | 61 | 1016.2 |
| 20260510085324 | 42 | 330 | 1.7 | 2.6 | 0.00 | 0.00 | 0.00 | 61 | 1016.2 |
| 20260510084820 | 42 | 333 | 1.7 | 3.5 | 0.00 | 0.00 | 0.00 | 62 | 1015.9 |
| 20260510084317 | 42 | 334 | 1.7 | 1.7 | 0.00 | 0.00 | 0.00 | 62 | 1015.8 |
| 20260510083814 | 41 | 334 | 1.7 | 2.6 | 0.00 | 0.00 | 0.00 | 62 | 1015.8 |
| 20260510083311 | 41 | 335 | 0.9 | 1.7 | 0.00 | 0.00 | 0.00 | 63 | 1015.7 |
| 20260510082806 | 39 | 339 | 0.9 | 1.7 | 0.00 | 0.00 | 0.00 | 68 | 1015.7 |
| 20260510082306 | 37 | 339 | 0.0 | 0.0 | 0.00 | 0.00 | 0.00 | 74 | 1015.7 |
| 20260510081802 | 37 | 339 | 0.0 | 0.0 | 0.00 | 0.00 | 0.00 | 78 | 1015.5 |
| 20260510081258 | 36 | 339 | 0.0 | 0.0 | 0.00 | 0.00 | 0.00 | 78 | 1015.5 |
| 20260510080754 | 36 | 339 | 0.0 | 0.0 | 0.00 | 0.00 | 0.00 | 79 | 1015.3 |
| 20260510080249 | 36 | 339 | 0.0 | 0.0 | 0.00 | 0.00 | 0.00 | 80 | 1015.4 |
| 20260510075747 | 35 | 339 | 0.0 | 0.0 | 0.00 | 0.00 | 0.00 | 79 | 1015.3 |
| 20260510075244 | 35 | 339 | 0.0 | 0.0 | 0.00 | 0.00 | 0.00 | 78 | 1015.1 |
| 20260510074741 | 35 | 339 | 0.0 | 0.0 | 0.00 | 0.00 | 0.00 | 76 | 1015.4 |
| 20260510074238 | 35 | 339 | 0.0 | 0.0 | 0.00 | 0.00 | 0.00 | 76 | 1015.2 |
| 20260510073733 | 35 | 339 | 0.0 | 0.0 | 0.00 | 0.00 | 0.00 | 75 | 1015.3 |
| 20260510073230 | 35 | 339 | 0.0 | 0.0 | 0.00 | 0.00 | 0.00 | 75 | 1015.1 |
| 20260510072725 | 35 | 339 | 0.0 | 0.0 | 0.00 | 0.00 | 0.00 | 73 | 1015.1 |
| 20260510072222 | 35 | 339 | 0.0 | 0.0 | 0.00 | 0.00 | 0.00 | 73 | 1015.2 |
| 20260510071719 | 35 | 339 | 0.0 | 0.0 | 0.00 | 0.00 | 0.00 | 74 | 1015.2 |
| 20260510071216 | 35 | 339 | 0.0 | 0.0 | 0.00 | 0.00 | 0.00 | 72 | 1015.2 |
| 20260510070714 | 35 | 339 | 0.0 | 0.0 | 0.00 | 0.00 | 0.00 | 71 | 1015.0 |
| 20260510070211 | 35 | 339 | 0.0 | 0.0 | 0.00 | 0.00 | 0.00 | 72 | 1015.1 |
| 20260510065706 | 36 | 339 | 0.0 | 0.0 | 0.00 | 0.00 | 0.00 | 72 | 1015.1 |
| 20260510065202 | 36 | 339 | 0.0 | 0.0 | 0.00 | 0.00 | 0.00 | 74 | 1015.1 |
| 20260510064659 | 36 | 338 | 0.0 | 0.0 | 0.00 | 0.00 | 0.00 | 74 | 1015.0 |
| 20260510064156 | 36 | 339 | 0.0 | 0.0 | 0.00 | 0.00 | 0.00 | 73 | 1015.0 |
| 20260510063653 | 37 | 338 | 0.0 | 0.0 | 0.00 | 0.00 | 0.00 | 73 | 1014.9 |
| 20260510063149 | 37 | 338 | 0.0 | 0.0 | 0.00 | 0.00 | 0.00 | 72 | 1015.0 |
| 20260510062646 | 37 | 339 | 0.0 | 0.0 | 0.00 | 0.00 | 0.00 | 71 | 1015.0 |
| 20260510062142 | 37 | 339 | 0.0 | 0.0 | 0.00 | 0.00 | 0.00 | 71 | 1015.0 |
| 20260510061637 | 37 | 338 | 0.0 | 0.0 | 0.00 | 0.00 | 0.00 | 70 | 1014.9 |
| 20260510061135 | 37 | 339 | 0.0 | 0.0 | 0.00 | 0.00 | 0.00 | 70 | 1015.1 |
| 20260510060631 | 37 | 339 | 0.0 | 0.0 | 0.00 | 0.00 | 0.00 | 69 | 1014.9 |
| 20260510060128 | 38 | 339 | 0.0 | 0.0 | 0.00 | 0.00 | 0.00 | 69 | 1014.8 |
| 20260510055624 | 38 | 339 | 0.0 | 0.0 | 0.00 | 0.00 | 0.00 | 68 | 1014.8 |
| 20260510055122 | 38 | 339 | 0.0 | 0.0 | 0.00 | 0.00 | 0.00 | 67 | 1014.9 |
| 20260510054611 | 38 | 339 | 0.0 | 0.0 | 0.00 | 0.00 | 0.00 | 65 | 1014.8 |
| 20260510054106 | 39 | 338 | 0.0 | 0.0 | 0.00 | 0.00 | 0.00 | 64 | 1014.7 |
| 20260510053601 | 39 | 338 | 0.0 | 0.0 | 0.00 | 0.00 | 0.00 | 63 | 1014.8 |
| 20260510053058 | 39 | 338 | 0.0 | 0.0 | 0.00 | 0.00 | 0.00 | 62 | 1014.6 |
| 20260510052554 | 39 | 338 | 0.0 | 0.0 | 0.00 | 0.00 | 0.00 | 62 | 1014.6 |
| 20260510052050 | 39 | 338 | 0.0 | 0.0 | 0.00 | 0.00 | 0.00 | 61 | 1014.8 |
| 20260510051546 | 40 | 338 | 0.0 | 0.0 | 0.00 | 0.00 | 0.00 | 60 | 1014.7 |
| 20260510051042 | 40 | 338 | 0.0 | 0.0 | 0.00 | 0.00 | 0.00 | 59 | 1014.5 |
| 20260510050539 | 41 | 338 | 0.0 | 0.0 | 0.00 | 0.00 | 0.00 | 60 | 1014.6 |
| 20260510050036 | 41 | 338 | 0.0 | 0.0 | 0.00 | 0.20 | 0.20 | 59 | 1014.4 |
| 20260510045534 | 41 | 338 | 0.0 | 0.0 | 0.00 | 0.20 | 0.20 | 57 | 1014.4 |
| 20260510045029 | 42 | 338 | 0.0 | 0.0 | 0.00 | 0.20 | 0.20 | 57 | 1014.5 |
| 20260510044526 | 42 | 338 | 0.0 | 0.9 | 0.00 | 0.20 | 0.20 | 56 | 1014.3 |
| 20260510044024 | 42 | 338 | 0.0 | 0.9 | 0.00 | 0.20 | 0.20 | 55 | 1014.5 |
| 20260510043519 | 43 | 338 | 0.0 | 0.0 | 0.00 | 0.20 | 0.20 | 55 | 1014.5 |
| 20260510043015 | 44 | 338 | 0.0 | 0.0 | 0.00 | 0.20 | 0.20 | 53 | 1014.2 |
| 20260510042509 | 45 | 338 | 0.0 | 0.9 | 0.00 | 0.20 | 0.20 | 51 | 1014.3 |
| 20260510042004 | 46 | 338 | 0.0 | 0.9 | 0.00 | 0.20 | 0.20 | 51 | 1014.4 |
| 20260510041502 | 46 | 338 | 0.9 | 0.9 | 0.00 | 0.20 | 0.20 | 53 | 1014.4 |
| 20260510040959 | 47 | 338 | 0.9 | 0.9 | 0.00 | 0.20 | 0.20 | 52 | 1014.4 |
| 20260510040455 | 46 | 338 | 0.9 | 1.7 | 0.00 | 0.20 | 0.20 | 49 | 1014.4 |
| 20260510035951 | 47 | 338 | 0.9 | 0.9 | 0.00 | 0.20 | 0.20 | 50 | 1014.2 |
| 20260510035448 | 47 | 338 | 0.9 | 1.7 | 0.00 | 0.20 | 0.20 | 47 | 1014.1 |
| 20260510034947 | 48 | 340 | 1.7 | 1.7 | 0.00 | 0.20 | 0.20 | 47 | 1014.2 |
| 20260510034447 | 48 | 335 | 1.7 | 1.7 | 0.00 | 0.20 | 0.20 | 46 | 1014.1 |
| 20260510033942 | 48 | 341 | 1.7 | 2.6 | 0.00 | 0.20 | 0.20 | 45 | 1014.1 |
| 20260510033438 | 48 | 340 | 1.7 | 2.6 | 0.00 | 0.20 | 0.20 | 46 | 1014.0 |
| 20260510032936 | 49 | 333 | 2.6 | 3.5 | 0.00 | 0.20 | 0.20 | 45 | 1014.1 |
| 20260510032433 | 49 | 339 | 1.7 | 2.6 | 0.00 | 0.20 | 0.20 | 48 | 1013.8 |
| 20260510031928 | 49 | 348 | 0.9 | 1.7 | 0.00 | 0.20 | 0.20 | 46 | 1013.9 |
| 20260510031423 | 49 | 322 | 2.6 | 5.2 | 0.00 | 0.20 | 0.20 | 45 | 1013.9 |
| 20260510030919 | 49 | 319 | 4.3 | 5.2 | 0.00 | 0.20 | 0.20 | 43 | 1013.8 |
| 20260510030415 | 49 | 346 | 2.6 | 3.5 | 0.00 | 0.20 | 0.20 | 43 | 1013.6 |
| 20260510025913 | 49 | 316 | 2.6 | 3.5 | 0.00 | 0.20 | 0.20 | 44 | 1013.8 |
| 20260510025410 | 49 | 344 | 2.6 | 3.5 | 0.00 | 0.20 | 0.20 | 45 | 1013.5 |
| 20260510024907 | 50 | 325 | 3.5 | 3.5 | 0.00 | 0.20 | 0.20 | 44 | 1013.5 |
| 20260510024403 | 50 | 312 | 1.7 | 2.6 | 0.00 | 0.20 | 0.20 | 44 | 1013.5 |
| 20260510023859 | 50 | 293 | 2.6 | 2.6 | 0.00 | 0.20 | 0.20 | 44 | 1013.1 |
| 20260510023356 | 50 | 349 | 1.7 | 2.6 | 0.00 | 0.20 | 0.20 | 42 | 1013.1 |
| 20260510022854 | 50 | 329 | 0.9 | 1.7 | 0.00 | 0.20 | 0.20 | 44 | 1012.8 |
| 20260510022352 | 50 | 342 | 2.6 | 3.5 | 0.00 | 0.20 | 0.20 | 43 | 1012.9 |
| 20260510021851 | 50 | 346 | 2.6 | 3.5 | 0.00 | 0.20 | 0.20 | 44 | 1012.8 |
| 20260510021350 | 50 | 0 | 1.7 | 2.6 | 0.00 | 0.20 | 0.20 | 41 | 1012.5 |
| 20260510020846 | 50 | 334 | 1.7 | 2.6 | 0.00 | 0.20 | 0.20 | 44 | 1012.5 |
| 20260510020346 | 50 | 330 | 2.6 | 2.6 | 0.00 | 0.20 | 0.20 | 43 | 1012.5 |
| 20260510015842 | 51 | 339 | 1.7 | 1.7 | 0.00 | 0.20 | 0.20 | 43 | 1012.4 |
| 20260510015338 | 51 | 339 | 0.9 | 3.5 | 0.00 | 0.20 | 0.20 | 39 | 1012.2 |
| 20260510014833 | 51 | 342 | 0.9 | 2.6 | 0.00 | 0.20 | 0.20 | 41 | 1012.1 |
| 20260510014331 | 51 | 5 | 0.9 | 2.6 | 0.00 | 0.20 | 0.20 | 39 | 1012.0 |
| 20260510013827 | 51 | 303 | 3.5 | 3.5 | 0.00 | 0.20 | 0.20 | 38 | 1011.9 |
| 20260510013323 | 52 | 311 | 3.5 | 5.2 | 0.00 | 0.20 | 0.20 | 37 | 1012.0 |
| 20260510012818 | 52 | 334 | 2.6 | 3.5 | 0.00 | 0.20 | 0.20 | 39 | 1011.7 |
| 20260510012317 | 52 | 310 | 1.7 | 2.6 | 0.00 | 0.20 | 0.20 | 40 | 1011.6 |
| 20260510011812 | 52 | 283 | 1.7 | 7.0 | 0.00 | 0.20 | 0.20 | 37 | 1011.5 |
| 20260510011308 | 53 | 319 | 3.5 | 5.2 | 0.00 | 0.20 | 0.20 | 39 | 1011.5 |
| 20260510010805 | 53 | 328 | 2.6 | 3.5 | 0.00 | 0.20 | 0.20 | 39 | 1011.5 |
| 20260510010302 | 53 | 321 | 4.3 | 6.1 | 0.00 | 0.20 | 0.20 | 38 | 1011.3 |
| 20260510005759 | 53 | 309 | 3.5 | 5.2 | 0.00 | 0.20 | 0.20 | 38 | 1011.2 |
| 20260510005255 | 53 | 310 | 7.0 | 7.0 | 0.00 | 0.20 | 0.20 | 36 | 1011.2 |
| 20260510004753 | 53 | 311 | 4.3 | 7.8 | 0.00 | 0.20 | 0.20 | 37 | 1011.1 |
| 20260510004250 | 54 | 315 | 4.3 | 6.1 | 0.00 | 0.20 | 0.20 | 36 | 1010.9 |
| 20260510003747 | 54 | 314 | 4.3 | 5.2 | 0.00 | 0.20 | 0.20 | 36 | 1011.0 |
| 20260510003244 | 54 | 324 | 3.5 | 5.2 | 0.00 | 0.20 | 0.20 | 40 | 1011.0 |
| 20260510002742 | 54 | 312 | 1.7 | 5.2 | 0.00 | 0.20 | 0.20 | 38 | 1010.8 |
| 20260510002240 | 54 | 321 | 3.5 | 5.2 | 0.00 | 0.20 | 0.20 | 36 | 1010.9 |
| 20260510001737 | 54 | 311 | 4.3 | 7.0 | 0.00 | 0.20 | 0.20 | 37 | 1010.9 |
| 20260510001236 | 54 | 337 | 5.2 | 6.1 | 0.00 | 0.20 | 0.20 | 36 | 1010.8 |
| 20260510000731 | 55 | 325 | 4.3 | 6.1 | 0.00 | 0.20 | 0.20 | 37 | 1010.8 |
| 20260510000228 | 55 | 330 | 6.1 | 7.0 | 0.00 | 0.20 | 0.20 | 36 | 1010.7 |
| 20260509235725 | 55 | 318 | 2.6 | 5.2 | 0.00 | 0.20 | 0.20 | 37 | 1010.3 |
| 20260509235221 | 55 | 299 | 3.5 | 7.0 | 0.00 | 0.20 | 0.20 | 35 | 1010.2 |
| 20260509234717 | 55 | 319 | 3.5 | 7.0 | 0.00 | 0.20 | 0.20 | 33 | 1010.3 |
| 20260509234215 | 55 | 37 | 3.5 | 7.0 | 0.00 | 0.20 | 0.20 | 33 | 1010.2 |
| 20260509233713 | 55 | 301 | 2.6 | 6.1 | 0.00 | 0.20 | 0.20 | 35 | 1010.2 |
| 20260509233210 | 56 | 339 | 3.5 | 7.0 | 0.00 | 0.20 | 0.20 | 35 | 1010.1 |
| 20260509232706 | 56 | 337 | 4.3 | 7.8 | 0.00 | 0.20 | 0.20 | 35 | 1010.0 |
| 20260509232203 | 56 | 10 | 3.5 | 7.0 | 0.00 | 0.20 | 0.20 | 32 | 1009.9 |
| 20260509231700 | 56 | 334 | 4.3 | 7.8 | 0.00 | 0.20 | 0.20 | 35 | 1010.1 |
| 20260509231157 | 56 | 323 | 3.5 | 8.7 | 0.00 | 0.20 | 0.20 | 34 | 1009.7 |
| 20260509230654 | 56 | 331 | 5.2 | 9.6 | 0.00 | 0.20 | 0.20 | 33 | 1009.8 |
| 20260509230151 | 56 | 342 | 6.1 | 8.7 | 0.00 | 0.20 | 0.20 | 36 | 1009.7 |
| 20260509225647 | 55 | 277 | 3.5 | 8.7 | 0.00 | 0.20 | 0.20 | 34 | 1009.8 |
| 20260509225143 | 56 | 314 | 6.1 | 11.3 | 0.00 | 0.20 | 0.20 | 36 | 1009.7 |
| 20260509224638 | 57 | 301 | 4.3 | 8.7 | 0.00 | 0.20 | 0.20 | 34 | 1009.7 |
| 20260509224135 | 56 | 320 | 7.8 | 9.6 | 0.00 | 0.20 | 0.20 | 35 | 1009.4 |
| 20260509223632 | 56 | 312 | 6.1 | 8.7 | 0.00 | 0.20 | 0.20 | 33 | 1009.6 |
| 20260509223130 | 56 | 0 | 4.3 | 6.1 | 0.00 | 0.20 | 0.20 | 32 | 1009.6 |
| 20260509222626 | 56 | 341 | 4.3 | 11.3 | 0.00 | 0.20 | 0.20 | 32 | 1009.3 |
| 20260509222122 | 55 | 329 | 3.5 | 7.0 | 0.00 | 0.20 | 0.20 | 35 | 1009.3 |
| 20260509221618 | 55 | 311 | 4.3 | 13.0 | 0.00 | 0.20 | 0.20 | 33 | 1009.3 |
| 20260509221114 | 55 | 319 | 5.2 | 7.8 | 0.00 | 0.20 | 0.20 | 35 | 1009.5 |
| 20260509220610 | 55 | 320 | 6.1 | 9.6 | 0.00 | 0.20 | 0.20 | 34 | 1009.4 |
| 20260509220107 | 54 | 322 | 2.6 | 5.2 | 0.00 | 0.20 | 0.20 | 37 | 1009.1 |
| 20260509215601 | 54 | 342 | 6.1 | 7.8 | 0.00 | 0.20 | 0.20 | 36 | 1009.2 |
| 20260509215059 | 54 | 348 | 2.6 | 7.8 | 0.00 | 0.20 | 0.20 | 37 | 1009.0 |
| 20260509214556 | 54 | 305 | 5.2 | 9.6 | 0.00 | 0.20 | 0.20 | 35 | 1009.1 |
| 20260509214053 | 54 | 324 | 3.5 | 6.1 | 0.00 | 0.20 | 0.20 | 39 | 1009.2 |